sensor_id;sensor_type;location;lat;lon;timestamp;temperature;humidity
65044;DHT22;51617;48.158;16.464;2023-09-19T00:01:40;21.80;95.00
65044;DHT22;51617;48.158;16.464;2023-09-19T00:04:07;21.60;95.40
65044;DHT22;51617;48.158;16.464;2023-09-19T00:06:38;21.60;95.90
65044;DHT22;51617;48.158;16.464;2023-09-19T00:09:04;21.50;95.80
65044;DHT22;51617;48.158;16.464;2023-09-19T00:11:29;21.30;96.60
65044;DHT22;51617;48.158;16.464;2023-09-19T00:13:56;21.20;96.60
65044;DHT22;51617;48.158;16.464;2023-09-19T00:16:22;21.10;97.10
65044;DHT22;51617;48.158;16.464;2023-09-19T00:18:48;21.10;97.40
65044;DHT22;51617;48.158;16.464;2023-09-19T00:21:14;21.00;97.30
65044;DHT22;51617;48.158;16.464;2023-09-19T00:23:40;20.90;97.60
65044;DHT22;51617;48.158;16.464;2023-09-19T00:26:06;20.90;98.10
65044;DHT22;51617;48.158;16.464;2023-09-19T00:28:31;20.80;98.20
65044;DHT22;51617;48.158;16.464;2023-09-19T00:30:57;20.70;98.90
65044;DHT22;51617;48.158;16.464;2023-09-19T00:33:26;20.50;99.60
65044;DHT22;51617;48.158;16.464;2023-09-19T00:35:52;20.30;99.90
65044;DHT22;51617;48.158;16.464;2023-09-19T00:38:18;20.10;99.90
65044;DHT22;51617;48.158;16.464;2023-09-19T00:40:48;20.00;99.90
65044;DHT22;51617;48.158;16.464;2023-09-19T00:43:14;19.90;99.90
65044;DHT22;51617;48.158;16.464;2023-09-19T00:45:43;19.90;99.90
65044;DHT22;51617;48.158;16.464;2023-09-19T00:48:09;19.80;99.90
65044;DHT22;51617;48.158;16.464;2023-09-19T00:50:35;19.70;99.90
65044;DHT22;51617;48.158;16.464;2023-09-19T00:53:01;19.60;99.90
65044;DHT22;51617;48.158;16.464;2023-09-19T00:55:30;19.70;99.90
65044;DHT22;51617;48.158;16.464;2023-09-19T00:57:58;19.60;99.90
65044;DHT22;51617;48.158;16.464;2023-09-19T01:00:23;19.60;99.90
65044;DHT22;51617;48.158;16.464;2023-09-19T01:02:50;19.60;99.90
65044;DHT22;51617;48.158;16.464;2023-09-19T01:05:15;19.60;99.90
65044;DHT22;51617;48.158;16.464;2023-09-19T01:07:41;19.60;99.90
65044;DHT22;51617;48.158;16.464;2023-09-19T01:10:08;19.70;99.90
65044;DHT22;51617;48.158;16.464;2023-09-19T01:15:32;19.80;99.90
65044;DHT22;51617;48.158;16.464;2023-09-19T01:20:22;19.80;99.90
65044;DHT22;51617;48.158;16.464;2023-09-19T01:25:28;19.60;99.90
65044;DHT22;51617;48.158;16.464;2023-09-19T01:30:35;19.50;99.90
65044;DHT22;51617;48.158;16.464;2023-09-19T01:33:01;19.30;99.90
65044;DHT22;51617;48.158;16.464;2023-09-19T01:35:29;19.30;99.90
65044;DHT22;51617;48.158;16.464;2023-09-19T01:37:54;19.20;99.90
65044;DHT22;51617;48.158;16.464;2023-09-19T01:40:20;19.10;99.90
65044;DHT22;51617;48.158;16.464;2023-09-19T01:42:54;18.90;99.90
65044;DHT22;51617;48.158;16.464;2023-09-19T01:45:26;18.80;99.90
65044;DHT22;51617;48.158;16.464;2023-09-19T01:47:57;18.70;99.90
65044;DHT22;51617;48.158;16.464;2023-09-19T01:50:34;18.60;99.90
65044;DHT22;51617;48.158;16.464;2023-09-19T01:55:50;18.50;99.90
65044;DHT22;51617;48.158;16.464;2023-09-19T02:01:01;18.30;99.90
65044;DHT22;51617;48.158;16.464;2023-09-19T02:03:27;18.30;99.90
65044;DHT22;51617;48.158;16.464;2023-09-19T02:05:54;18.20;99.90
65044;DHT22;51617;48.158;16.464;2023-09-19T02:08:20;18.20;99.90
65044;DHT22;51617;48.158;16.464;2023-09-19T02:10:49;18.10;99.90
65044;DHT22;51617;48.158;16.464;2023-09-19T02:13:21;18.10;99.90
65044;DHT22;51617;48.158;16.464;2023-09-19T02:15:47;18.00;99.90
65044;DHT22;51617;48.158;16.464;2023-09-19T02:18:13;18.00;99.90
65044;DHT22;51617;48.158;16.464;2023-09-19T02:20:39;18.00;99.90
65044;DHT22;51617;48.158;16.464;2023-09-19T02:23:05;18.10;99.90
65044;DHT22;51617;48.158;16.464;2023-09-19T02:25:31;18.10;99.90
65044;DHT22;51617;48.158;16.464;2023-09-19T02:28:00;18.20;99.90
65044;DHT22;51617;48.158;16.464;2023-09-19T02:30:28;18.20;99.90
65044;DHT22;51617;48.158;16.464;2023-09-19T02:32:54;18.20;99.90
65044;DHT22;51617;48.158;16.464;2023-09-19T02:35:19;18.30;99.90
65044;DHT22;51617;48.158;16.464;2023-09-19T02:37:46;18.30;99.90
65044;DHT22;51617;48.158;16.464;2023-09-19T02:40:11;18.30;99.90
65044;DHT22;51617;48.158;16.464;2023-09-19T02:42:54;18.40;99.90
65044;DHT22;51617;48.158;16.464;2023-09-19T02:45:20;18.40;99.90
65044;DHT22;51617;48.158;16.464;2023-09-19T02:47:46;18.50;99.90
65044;DHT22;51617;48.158;16.464;2023-09-19T02:50:11;18.50;99.90
65044;DHT22;51617;48.158;16.464;2023-09-19T02:52:38;18.60;99.90
65044;DHT22;51617;48.158;16.464;2023-09-19T02:55:08;18.50;99.90
65044;DHT22;51617;48.158;16.464;2023-09-19T02:57:35;18.60;99.90
65044;DHT22;51617;48.158;16.464;2023-09-19T03:00:02;18.60;99.90
65044;DHT22;51617;48.158;16.464;2023-09-19T03:02:28;18.60;99.90
65044;DHT22;51617;48.158;16.464;2023-09-19T03:04:54;18.60;99.90
65044;DHT22;51617;48.158;16.464;2023-09-19T03:07:19;18.60;99.90
65044;DHT22;51617;48.158;16.464;2023-09-19T03:09:45;18.60;99.90
65044;DHT22;51617;48.158;16.464;2023-09-19T03:12:11;18.70;99.90
65044;DHT22;51617;48.158;16.464;2023-09-19T03:14:36;18.70;99.90
65044;DHT22;51617;48.158;16.464;2023-09-19T03:17:02;18.70;99.90
65044;DHT22;51617;48.158;16.464;2023-09-19T03:19:30;18.70;99.90
65044;DHT22;51617;48.158;16.464;2023-09-19T03:21:58;18.70;99.90
65044;DHT22;51617;48.158;16.464;2023-09-19T03:24:24;18.70;99.90
65044;DHT22;51617;48.158;16.464;2023-09-19T03:26:50;18.80;99.90
65044;DHT22;51617;48.158;16.464;2023-09-19T03:29:15;18.70;99.90
65044;DHT22;51617;48.158;16.464;2023-09-19T03:31:42;18.70;99.90
65044;DHT22;51617;48.158;16.464;2023-09-19T03:34:08;18.80;99.90
65044;DHT22;51617;48.158;16.464;2023-09-19T03:36:34;18.80;99.90
65044;DHT22;51617;48.158;16.464;2023-09-19T03:39:00;18.90;99.90
65044;DHT22;51617;48.158;16.464;2023-09-19T03:41:25;18.90;99.90
65044;DHT22;51617;48.158;16.464;2023-09-19T03:43:51;18.90;99.90
65044;DHT22;51617;48.158;16.464;2023-09-19T03:46:17;19.00;99.90
65044;DHT22;51617;48.158;16.464;2023-09-19T03:48:42;19.10;99.90
65044;DHT22;51617;48.158;16.464;2023-09-19T03:51:08;19.10;99.90
65044;DHT22;51617;48.158;16.464;2023-09-19T03:53:34;19.20;99.90
65044;DHT22;51617;48.158;16.464;2023-09-19T03:55:59;19.20;99.90
65044;DHT22;51617;48.158;16.464;2023-09-19T03:58:25;19.30;99.90
65044;DHT22;51617;48.158;16.464;2023-09-19T04:00:54;19.30;99.90
65044;DHT22;51617;48.158;16.464;2023-09-19T04:03:20;19.40;99.90
65044;DHT22;51617;48.158;16.464;2023-09-19T04:05:46;19.40;99.90
65044;DHT22;51617;48.158;16.464;2023-09-19T04:08:13;19.40;99.90
65044;DHT22;51617;48.158;16.464;2023-09-19T04:10:41;19.50;99.90
65044;DHT22;51617;48.158;16.464;2023-09-19T04:13:06;19.50;99.90
65044;DHT22;51617;48.158;16.464;2023-09-19T04:15:32;19.50;99.90
65044;DHT22;51617;48.158;16.464;2023-09-19T04:17:58;19.50;99.90
65044;DHT22;51617;48.158;16.464;2023-09-19T04:20:23;19.50;99.90
65044;DHT22;51617;48.158;16.464;2023-09-19T04:22:49;19.50;99.90
65044;DHT22;51617;48.158;16.464;2023-09-19T04:25:15;19.60;99.90
65044;DHT22;51617;48.158;16.464;2023-09-19T04:27:40;19.60;99.90
65044;DHT22;51617;48.158;16.464;2023-09-19T04:30:09;19.60;99.90
65044;DHT22;51617;48.158;16.464;2023-09-19T04:32:38;19.60;99.90
65044;DHT22;51617;48.158;16.464;2023-09-19T04:35:07;19.60;99.90
65044;DHT22;51617;48.158;16.464;2023-09-19T04:37:33;19.60;99.90
65044;DHT22;51617;48.158;16.464;2023-09-19T04:39:58;19.70;99.90
65044;DHT22;51617;48.158;16.464;2023-09-19T04:42:24;19.70;99.90
65044;DHT22;51617;48.158;16.464;2023-09-19T04:44:50;19.70;99.90
65044;DHT22;51617;48.158;16.464;2023-09-19T04:47:19;19.80;99.90
65044;DHT22;51617;48.158;16.464;2023-09-19T04:49:44;19.80;99.90
65044;DHT22;51617;48.158;16.464;2023-09-19T04:52:10;19.80;99.90
65044;DHT22;51617;48.158;16.464;2023-09-19T04:54:35;19.90;99.90
65044;DHT22;51617;48.158;16.464;2023-09-19T04:57:01;19.80;99.90
65044;DHT22;51617;48.158;16.464;2023-09-19T04:59:27;19.90;99.90
65044;DHT22;51617;48.158;16.464;2023-09-19T05:01:53;19.90;99.90
65044;DHT22;51617;48.158;16.464;2023-09-19T05:04:19;19.80;99.90
65044;DHT22;51617;48.158;16.464;2023-09-19T05:06:44;19.70;99.90
65044;DHT22;51617;48.158;16.464;2023-09-19T05:09:10;19.70;99.90
65044;DHT22;51617;48.158;16.464;2023-09-19T05:11:35;19.70;99.90
65044;DHT22;51617;48.158;16.464;2023-09-19T05:14:03;19.70;99.90
65044;DHT22;51617;48.158;16.464;2023-09-19T05:16:29;19.60;99.90
65044;DHT22;51617;48.158;16.464;2023-09-19T05:18:57;19.60;99.90
65044;DHT22;51617;48.158;16.464;2023-09-19T05:21:23;19.50;99.90
65044;DHT22;51617;48.158;16.464;2023-09-19T05:23:51;19.40;99.90
65044;DHT22;51617;48.158;16.464;2023-09-19T05:26:16;19.20;99.90
65044;DHT22;51617;48.158;16.464;2023-09-19T05:28:43;19.10;99.90
65044;DHT22;51617;48.158;16.464;2023-09-19T05:31:08;19.00;99.90
65044;DHT22;51617;48.158;16.464;2023-09-19T05:33:34;19.00;99.90
65044;DHT22;51617;48.158;16.464;2023-09-19T05:35:59;18.90;99.90
65044;DHT22;51617;48.158;16.464;2023-09-19T05:38:25;18.90;99.90
65044;DHT22;51617;48.158;16.464;2023-09-19T05:40:51;18.90;99.90
65044;DHT22;51617;48.158;16.464;2023-09-19T05:43:17;18.90;99.90
65044;DHT22;51617;48.158;16.464;2023-09-19T05:45:43;18.80;99.90
65044;DHT22;51617;48.158;16.464;2023-09-19T05:48:11;18.80;99.90
65044;DHT22;51617;48.158;16.464;2023-09-19T05:50:39;18.70;99.90
65044;DHT22;51617;48.158;16.464;2023-09-19T05:53:05;18.70;99.90
65044;DHT22;51617;48.158;16.464;2023-09-19T05:55:33;18.70;99.90
65044;DHT22;51617;48.158;16.464;2023-09-19T05:57:59;18.70;99.90
65044;DHT22;51617;48.158;16.464;2023-09-19T06:00:25;18.70;99.90
65044;DHT22;51617;48.158;16.464;2023-09-19T06:05:18;18.90;99.90
65044;DHT22;51617;48.158;16.464;2023-09-19T06:07:43;18.90;99.90
65044;DHT22;51617;48.158;16.464;2023-09-19T06:10:09;19.00;99.90
65044;DHT22;51617;48.158;16.464;2023-09-19T06:12:41;19.00;99.90
65044;DHT22;51617;48.158;16.464;2023-09-19T06:15:10;19.10;99.90
65044;DHT22;51617;48.158;16.464;2023-09-19T06:17:54;19.20;99.90
65044;DHT22;51617;48.158;16.464;2023-09-19T06:20:20;19.20;99.90
65044;DHT22;51617;48.158;16.464;2023-09-19T06:22:47;19.30;99.90
65044;DHT22;51617;48.158;16.464;2023-09-19T06:25:14;19.30;99.90
65044;DHT22;51617;48.158;16.464;2023-09-19T06:27:46;19.40;99.90
65044;DHT22;51617;48.158;16.464;2023-09-19T06:30:11;19.50;99.90
65044;DHT22;51617;48.158;16.464;2023-09-19T06:32:38;19.50;99.90
65044;DHT22;51617;48.158;16.464;2023-09-19T06:35:04;19.60;99.90
65044;DHT22;51617;48.158;16.464;2023-09-19T06:37:32;19.70;99.90
65044;DHT22;51617;48.158;16.464;2023-09-19T06:39:59;19.80;99.90
65044;DHT22;51617;48.158;16.464;2023-09-19T06:42:25;19.90;99.90
65044;DHT22;51617;48.158;16.464;2023-09-19T06:44:50;19.90;99.90
65044;DHT22;51617;48.158;16.464;2023-09-19T06:47:16;20.00;99.90
65044;DHT22;51617;48.158;16.464;2023-09-19T06:49:42;20.00;99.90
65044;DHT22;51617;48.158;16.464;2023-09-19T06:52:10;20.10;99.90
65044;DHT22;51617;48.158;16.464;2023-09-19T06:54:36;20.00;99.90
65044;DHT22;51617;48.158;16.464;2023-09-19T06:57:01;20.00;99.90
65044;DHT22;51617;48.158;16.464;2023-09-19T06:59:27;20.00;99.90
65044;DHT22;51617;48.158;16.464;2023-09-19T07:01:52;20.00;99.90
65044;DHT22;51617;48.158;16.464;2023-09-19T07:04:18;20.00;99.90
65044;DHT22;51617;48.158;16.464;2023-09-19T07:06:49;19.90;99.90
65044;DHT22;51617;48.158;16.464;2023-09-19T07:09:15;20.00;99.90
65044;DHT22;51617;48.158;16.464;2023-09-19T07:11:40;20.10;99.90
65044;DHT22;51617;48.158;16.464;2023-09-19T07:14:06;20.10;99.90
65044;DHT22;51617;48.158;16.464;2023-09-19T07:16:31;20.20;99.90
65044;DHT22;51617;48.158;16.464;2023-09-19T07:18:57;20.20;99.90
65044;DHT22;51617;48.158;16.464;2023-09-19T07:21:23;20.30;99.90
65044;DHT22;51617;48.158;16.464;2023-09-19T07:23:49;20.30;99.90
65044;DHT22;51617;48.158;16.464;2023-09-19T07:26:15;20.30;99.90
65044;DHT22;51617;48.158;16.464;2023-09-19T07:28:40;20.30;99.90
65044;DHT22;51617;48.158;16.464;2023-09-19T07:31:06;20.30;99.90
65044;DHT22;51617;48.158;16.464;2023-09-19T07:33:35;20.30;99.90
65044;DHT22;51617;48.158;16.464;2023-09-19T07:36:01;20.40;99.90
65044;DHT22;51617;48.158;16.464;2023-09-19T07:38:27;20.40;99.90
65044;DHT22;51617;48.158;16.464;2023-09-19T07:40:52;20.50;99.90
65044;DHT22;51617;48.158;16.464;2023-09-19T07:43:18;20.50;99.90
65044;DHT22;51617;48.158;16.464;2023-09-19T07:45:43;20.40;99.90
65044;DHT22;51617;48.158;16.464;2023-09-19T07:48:09;20.40;99.90
65044;DHT22;51617;48.158;16.464;2023-09-19T07:50:39;20.40;99.90
65044;DHT22;51617;48.158;16.464;2023-09-19T07:53:05;20.50;99.90
65044;DHT22;51617;48.158;16.464;2023-09-19T07:55:31;20.50;99.90
65044;DHT22;51617;48.158;16.464;2023-09-19T07:57:59;20.60;99.90
65044;DHT22;51617;48.158;16.464;2023-09-19T08:00:24;20.60;99.90
65044;DHT22;51617;48.158;16.464;2023-09-19T08:02:50;20.70;99.90
65044;DHT22;51617;48.158;16.464;2023-09-19T08:05:17;20.80;99.90
65044;DHT22;51617;48.158;16.464;2023-09-19T08:07:44;21.00;99.90
65044;DHT22;51617;48.158;16.464;2023-09-19T08:10:14;21.20;99.90
65044;DHT22;51617;48.158;16.464;2023-09-19T08:12:41;21.20;99.40
65044;DHT22;51617;48.158;16.464;2023-09-19T08:18:26;21.30;99.70
65044;DHT22;51617;48.158;16.464;2023-09-19T08:20:55;21.40;99.10
65044;DHT22;51617;48.158;16.464;2023-09-19T08:23:23;21.30;98.90
65044;DHT22;51617;48.158;16.464;2023-09-19T08:28:54;21.40;99.10
65044;DHT22;51617;48.158;16.464;2023-09-19T08:31:26;21.60;99.00
65044;DHT22;51617;48.158;16.464;2023-09-19T08:34:25;21.60;98.50
65044;DHT22;51617;48.158;16.464;2023-09-19T08:36:54;21.60;98.60
65044;DHT22;51617;48.158;16.464;2023-09-19T08:39:23;21.60;98.40
65044;DHT22;51617;48.158;16.464;2023-09-19T08:41:49;21.80;98.20
65044;DHT22;51617;48.158;16.464;2023-09-19T08:44:14;21.80;98.10
65044;DHT22;51617;48.158;16.464;2023-09-19T08:46:40;21.80;97.80
65044;DHT22;51617;48.158;16.464;2023-09-19T08:51:56;21.90;97.60
65044;DHT22;51617;48.158;16.464;2023-09-19T08:54:28;21.90;97.80
65044;DHT22;51617;48.158;16.464;2023-09-19T08:57:00;21.90;97.90
65044;DHT22;51617;48.158;16.464;2023-09-19T08:59:27;21.80;97.80
65044;DHT22;51617;48.158;16.464;2023-09-19T09:01:54;21.90;98.00
65044;DHT22;51617;48.158;16.464;2023-09-19T09:04:20;21.90;97.60
65044;DHT22;51617;48.158;16.464;2023-09-19T09:06:47;21.90;97.50
65044;DHT22;51617;48.158;16.464;2023-09-19T09:09:16;21.80;97.70
65044;DHT22;51617;48.158;16.464;2023-09-19T09:11:42;21.80;97.90
65044;DHT22;51617;48.158;16.464;2023-09-19T09:14:07;21.70;97.50
65044;DHT22;51617;48.158;16.464;2023-09-19T09:16:34;21.60;97.90
65044;DHT22;51617;48.158;16.464;2023-09-19T09:18:59;21.60;97.70
65044;DHT22;51617;48.158;16.464;2023-09-19T09:21:25;21.50;97.90
65044;DHT22;51617;48.158;16.464;2023-09-19T09:23:51;21.40;97.80
65044;DHT22;51617;48.158;16.464;2023-09-19T09:29:15;21.40;98.10
65044;DHT22;51617;48.158;16.464;2023-09-19T09:31:41;21.40;97.90
65044;DHT22;51617;48.158;16.464;2023-09-19T09:34:08;21.30;98.00
65044;DHT22;51617;48.158;16.464;2023-09-19T09:36:35;21.30;98.40
65044;DHT22;51617;48.158;16.464;2023-09-19T09:39:02;21.40;98.20
65044;DHT22;51617;48.158;16.464;2023-09-19T09:41:41;21.50;97.90
65044;DHT22;51617;48.158;16.464;2023-09-19T09:44:13;21.60;97.80
65044;DHT22;51617;48.158;16.464;2023-09-19T09:46:44;21.60;97.60
65044;DHT22;51617;48.158;16.464;2023-09-19T09:49:24;21.80;97.90
65044;DHT22;51617;48.158;16.464;2023-09-19T09:52:03;21.90;97.30
65044;DHT22;51617;48.158;16.464;2023-09-19T09:54:59;22.00;97.40
65044;DHT22;51617;48.158;16.464;2023-09-19T09:57:26;22.00;97.30
65044;DHT22;51617;48.158;16.464;2023-09-19T09:59:55;22.20;97.00
65044;DHT22;51617;48.158;16.464;2023-09-19T10:02:29;22.40;97.00
65044;DHT22;51617;48.158;16.464;2023-09-19T10:04:58;22.70;96.40
65044;DHT22;51617;48.158;16.464;2023-09-19T10:07:35;23.00;96.10
65044;DHT22;51617;48.158;16.464;2023-09-19T10:10:06;23.00;95.20
65044;DHT22;51617;48.158;16.464;2023-09-19T10:12:45;23.10;95.40
65044;DHT22;51617;48.158;16.464;2023-09-19T10:15:11;23.10;94.80
65044;DHT22;51617;48.158;16.464;2023-09-19T10:17:44;23.10;95.10
65044;DHT22;51617;48.158;16.464;2023-09-19T10:20:14;23.30;94.60
65044;DHT22;51617;48.158;16.464;2023-09-19T10:22:52;23.10;94.70
65044;DHT22;51617;48.158;16.464;2023-09-19T10:25:23;23.20;94.30
65044;DHT22;51617;48.158;16.464;2023-09-19T10:27:50;23.30;94.30
65044;DHT22;51617;48.158;16.464;2023-09-19T10:30:18;23.40;94.30
65044;DHT22;51617;48.158;16.464;2023-09-19T10:32:45;23.40;94.00
65044;DHT22;51617;48.158;16.464;2023-09-19T10:35:14;23.50;94.20
65044;DHT22;51617;48.158;16.464;2023-09-19T10:37:40;23.60;94.10
65044;DHT22;51617;48.158;16.464;2023-09-19T10:40:06;23.60;94.40
65044;DHT22;51617;48.158;16.464;2023-09-19T10:42:34;23.70;93.40
65044;DHT22;51617;48.158;16.464;2023-09-19T10:45:03;23.80;93.90
65044;DHT22;51617;48.158;16.464;2023-09-19T10:47:32;23.80;93.70
65044;DHT22;51617;48.158;16.464;2023-09-19T10:49:58;23.80;93.20
65044;DHT22;51617;48.158;16.464;2023-09-19T10:52:25;23.90;93.60
65044;DHT22;51617;48.158;16.464;2023-09-19T10:54:52;24.00;93.20
65044;DHT22;51617;48.158;16.464;2023-09-19T10:57:26;24.00;93.20
65044;DHT22;51617;48.158;16.464;2023-09-19T11:03:16;23.90;93.60
65044;DHT22;51617;48.158;16.464;2023-09-19T11:05:32;23.90;92.90
65044;DHT22;51617;48.158;16.464;2023-09-19T11:07:58;23.80;93.20
65044;DHT22;51617;48.158;16.464;2023-09-19T11:10:44;23.90;93.40
65044;DHT22;51617;48.158;16.464;2023-09-19T11:26:47;24.90;92.00
65044;DHT22;51617;48.158;16.464;2023-09-19T11:29:26;24.70;91.80
65044;DHT22;51617;48.158;16.464;2023-09-19T11:31:52;24.80;92.20
65044;DHT22;51617;48.158;16.464;2023-09-19T11:39:40;24.60;91.70
65044;DHT22;51617;48.158;16.464;2023-09-19T11:44:52;24.70;91.30
65044;DHT22;51617;48.158;16.464;2023-09-19T11:47:21;24.70;91.90
65044;DHT22;51617;48.158;16.464;2023-09-19T11:49:50;24.70;91.20
65044;DHT22;51617;48.158;16.464;2023-09-19T11:52:21;24.90;90.90
65044;DHT22;51617;48.158;16.464;2023-09-19T11:54:54;25.00;90.60
65044;DHT22;51617;48.158;16.464;2023-09-19T11:57:22;25.00;90.30
65044;DHT22;51617;48.158;16.464;2023-09-19T11:59:47;25.00;90.60
65044;DHT22;51617;48.158;16.464;2023-09-19T12:02:15;25.00;90.10
65044;DHT22;51617;48.158;16.464;2023-09-19T12:04:42;25.00;90.00
65044;DHT22;51617;48.158;16.464;2023-09-19T12:09:45;25.00;90.10
65044;DHT22;51617;48.158;16.464;2023-09-19T12:12:22;25.20;90.40
65044;DHT22;51617;48.158;16.464;2023-09-19T12:14:52;25.10;88.90
65044;DHT22;51617;48.158;16.464;2023-09-19T12:17:18;25.00;89.50
65044;DHT22;51617;48.158;16.464;2023-09-19T12:19:51;25.00;89.60
65044;DHT22;51617;48.158;16.464;2023-09-19T12:22:17;25.00;90.10
65044;DHT22;51617;48.158;16.464;2023-09-19T12:24:44;24.80;89.40
65044;DHT22;51617;48.158;16.464;2023-09-19T12:27:11;24.70;90.40
65044;DHT22;51617;48.158;16.464;2023-09-19T12:32:09;24.70;90.10
65044;DHT22;51617;48.158;16.464;2023-09-19T12:34:34;24.70;90.60
65044;DHT22;51617;48.158;16.464;2023-09-19T12:37:10;24.80;90.20
65044;DHT22;51617;48.158;16.464;2023-09-19T12:39:40;24.90;89.90
65044;DHT22;51617;48.158;16.464;2023-09-19T12:42:09;24.90;89.70
65044;DHT22;51617;48.158;16.464;2023-09-19T12:44:40;24.90;89.70
65044;DHT22;51617;48.158;16.464;2023-09-19T12:47:16;25.00;89.20
65044;DHT22;51617;48.158;16.464;2023-09-19T12:52:33;25.20;88.90
65044;DHT22;51617;48.158;16.464;2023-09-19T12:54:59;25.40;87.30
65044;DHT22;51617;48.158;16.464;2023-09-19T12:57:28;25.40;85.60
65044;DHT22;51617;48.158;16.464;2023-09-19T12:59:53;25.40;87.00
65044;DHT22;51617;48.158;16.464;2023-09-19T13:02:20;25.50;87.80
65044;DHT22;51617;48.158;16.464;2023-09-19T13:04:52;25.60;85.40
65044;DHT22;51617;48.158;16.464;2023-09-19T13:10:04;25.80;86.10
65044;DHT22;51617;48.158;16.464;2023-09-19T13:12:36;25.90;84.80
65044;DHT22;51617;48.158;16.464;2023-09-19T13:15:12;25.80;84.20
65044;DHT22;51617;48.158;16.464;2023-09-19T13:17:46;25.70;85.80
65044;DHT22;51617;48.158;16.464;2023-09-19T13:20:21;25.60;85.60
65044;DHT22;51617;48.158;16.464;2023-09-19T13:22:50;25.60;84.80
65044;DHT22;51617;48.158;16.464;2023-09-19T13:25:19;25.70;84.20
65044;DHT22;51617;48.158;16.464;2023-09-19T13:30:11;25.70;84.70
65044;DHT22;51617;48.158;16.464;2023-09-19T13:32:37;26.00;84.10
65044;DHT22;51617;48.158;16.464;2023-09-19T13:35:04;26.10;82.60
65044;DHT22;51617;48.158;16.464;2023-09-19T13:37:30;26.20;83.10
65044;DHT22;51617;48.158;16.464;2023-09-19T13:39:56;26.30;83.60
65044;DHT22;51617;48.158;16.464;2023-09-19T13:42:24;26.30;83.10
65044;DHT22;51617;48.158;16.464;2023-09-19T13:44:50;26.30;85.50
65044;DHT22;51617;48.158;16.464;2023-09-19T13:47:16;26.40;82.50
65044;DHT22;51617;48.158;16.464;2023-09-19T13:49:50;26.30;88.30
65044;DHT22;51617;48.158;16.464;2023-09-19T13:52:18;26.20;89.20
65044;DHT22;51617;48.158;16.464;2023-09-19T13:54:44;26.30;87.90
65044;DHT22;51617;48.158;16.464;2023-09-19T13:57:10;26.20;88.70
65044;DHT22;51617;48.158;16.464;2023-09-19T13:59:35;26.30;89.40
65044;DHT22;51617;48.158;16.464;2023-09-19T14:02:01;26.40;88.70
65044;DHT22;51617;48.158;16.464;2023-09-19T14:04:31;26.50;88.20
65044;DHT22;51617;48.158;16.464;2023-09-19T14:06:57;26.60;88.30
65044;DHT22;51617;48.158;16.464;2023-09-19T14:09:23;26.60;88.30
65044;DHT22;51617;48.158;16.464;2023-09-19T14:11:50;26.50;88.30
65044;DHT22;51617;48.158;16.464;2023-09-19T14:14:18;26.50;88.70
65044;DHT22;51617;48.158;16.464;2023-09-19T14:16:43;26.50;84.00
65044;DHT22;51617;48.158;16.464;2023-09-19T14:19:09;26.40;82.80
65044;DHT22;51617;48.158;16.464;2023-09-19T14:21:37;26.50;88.10
65044;DHT22;51617;48.158;16.464;2023-09-19T14:24:04;26.30;89.10
65044;DHT22;51617;48.158;16.464;2023-09-19T14:26:35;26.40;89.00
65044;DHT22;51617;48.158;16.464;2023-09-19T14:29:00;26.50;89.10
65044;DHT22;51617;48.158;16.464;2023-09-19T14:31:26;26.50;89.30
65044;DHT22;51617;48.158;16.464;2023-09-19T14:33:56;26.30;89.60
65044;DHT22;51617;48.158;16.464;2023-09-19T14:36:24;26.40;89.70
65044;DHT22;51617;48.158;16.464;2023-09-19T14:38:53;26.40;90.30
65044;DHT22;51617;48.158;16.464;2023-09-19T14:41:20;26.30;83.50
65044;DHT22;51617;48.158;16.464;2023-09-19T14:43:46;26.10;81.00
65044;DHT22;51617;48.158;16.464;2023-09-19T14:46:11;25.90;81.60
65044;DHT22;51617;48.158;16.464;2023-09-19T14:48:37;25.90;81.40
65044;DHT22;51617;48.158;16.464;2023-09-19T14:51:03;25.70;81.00
65044;DHT22;51617;48.158;16.464;2023-09-19T14:53:29;25.60;81.60
65044;DHT22;51617;48.158;16.464;2023-09-19T14:55:55;25.70;81.60
65044;DHT22;51617;48.158;16.464;2023-09-19T14:58:21;25.70;81.30
65044;DHT22;51617;48.158;16.464;2023-09-19T15:00:47;25.70;81.90
65044;DHT22;51617;48.158;16.464;2023-09-19T15:03:13;25.80;81.90
65044;DHT22;51617;48.158;16.464;2023-09-19T15:05:40;25.90;81.80
65044;DHT22;51617;48.158;16.464;2023-09-19T15:08:06;25.90;82.30
65044;DHT22;51617;48.158;16.464;2023-09-19T15:10:32;25.90;83.10
65044;DHT22;51617;48.158;16.464;2023-09-19T15:12:58;26.10;81.70
65044;DHT22;51617;48.158;16.464;2023-09-19T15:15:24;25.90;81.40
65044;DHT22;51617;48.158;16.464;2023-09-19T15:17:50;25.80;82.30
65044;DHT22;51617;48.158;16.464;2023-09-19T15:20:16;25.80;81.50
65044;DHT22;51617;48.158;16.464;2023-09-19T15:22:43;25.80;82.50
65044;DHT22;51617;48.158;16.464;2023-09-19T15:25:09;25.70;82.60
65044;DHT22;51617;48.158;16.464;2023-09-19T15:27:35;25.80;83.30
65044;DHT22;51617;48.158;16.464;2023-09-19T15:30:02;25.80;83.30
65044;DHT22;51617;48.158;16.464;2023-09-19T15:32:28;25.90;83.20
65044;DHT22;51617;48.158;16.464;2023-09-19T15:34:55;25.80;82.40
65044;DHT22;51617;48.158;16.464;2023-09-19T15:37:21;25.80;82.90
65044;DHT22;51617;48.158;16.464;2023-09-19T15:39:48;25.80;83.20
65044;DHT22;51617;48.158;16.464;2023-09-19T15:42:14;25.80;82.60
65044;DHT22;51617;48.158;16.464;2023-09-19T15:44:42;25.80;82.20
65044;DHT22;51617;48.158;16.464;2023-09-19T15:47:09;25.70;81.80
65044;DHT22;51617;48.158;16.464;2023-09-19T15:49:35;25.70;82.20
65044;DHT22;51617;48.158;16.464;2023-09-19T15:52:02;25.70;82.40
65044;DHT22;51617;48.158;16.464;2023-09-19T15:54:28;25.90;82.40
65044;DHT22;51617;48.158;16.464;2023-09-19T15:56:55;26.00;81.80
65044;DHT22;51617;48.158;16.464;2023-09-19T15:59:21;26.00;80.90
65044;DHT22;51617;48.158;16.464;2023-09-19T16:01:47;26.10;80.80
65044;DHT22;51617;48.158;16.464;2023-09-19T16:04:14;26.30;80.90
65044;DHT22;51617;48.158;16.464;2023-09-19T16:06:42;26.90;80.00
65044;DHT22;51617;48.158;16.464;2023-09-19T16:09:08;27.80;78.50
65044;DHT22;51617;48.158;16.464;2023-09-19T16:11:38;28.60;76.50
65044;DHT22;51617;48.158;16.464;2023-09-19T16:14:04;28.60;74.90
65044;DHT22;51617;48.158;16.464;2023-09-19T16:16:32;28.70;75.30
65044;DHT22;51617;48.158;16.464;2023-09-19T16:19:01;28.60;74.90
65044;DHT22;51617;48.158;16.464;2023-09-19T16:21:29;28.30;75.20
65044;DHT22;51617;48.158;16.464;2023-09-19T16:23:56;28.10;75.50
65044;DHT22;51617;48.158;16.464;2023-09-19T16:26:23;27.50;75.60